Time;durP1;ratioP1;P1;durP2;ratioP2;P2;SDS_P1;SDS_P2;PMS_P1;PMS_P2;Temp;Humidity;BMP_temperature;BMP_pressure;BME280_temperature;BME280_humidity;BME280_pressure;Samples;Min_cycle;Max_cycle;Signal;HPM_P1;HPM_P2
2021/12/31 00:01:41;;;;;;;90.35;17.27;;;;;;;2.75;100.00;101376.94;6257651;22;20008;-88
2021/12/31 00:04:07;;;;;;;93.75;18.00;;;;;;;2.58;100.00;101378.78;6281386;22;20012;-86
2021/12/31 00:06:34;;;;;;;33.97;16.92;;;;;;;2.83;100.00;101378.13;6282774;22;20085;-87
2021/12/31 00:08:59;;;;;;;80.30;19.33;;;;;;;2.59;100.00;101375.19;6286021;22;20012;-86
2021/12/31 00:11:25;;;;;;;52.80;16.75;;;;;;;2.28;100.00;101375.31;6282670;22;20039;-85
2021/12/31 00:13:50;;;;;;;75.82;17.63;;;;;;;2.21;100.00;101380.97;6256009;22;20007;-87
2021/12/31 00:16:16;;;;;;;79.60;17.75;;;;;;;2.13;100.00;101384.03;6279981;22;20446;-87
2021/12/31 00:18:41;;;;;;;102.95;17.30;;;;;;;2.14;100.00;101385.72;6280730;22;20050;-84
2021/12/31 00:21:07;;;;;;;149.27;18.92;;;;;;;2.17;100.00;101396.00;6254126;22;20011;-84
2021/12/31 00:23:36;;;;;;;198.50;19.83;;;;;;;2.24;100.00;101392.09;6280941;22;20080;-87
2021/12/31 00:26:02;;;;;;;261.92;20.33;;;;;;;2.18;100.00;101387.25;6279967;22;20070;-84
2021/12/31 00:28:27;;;;;;;53.88;16.60;;;;;;;2.27;100.00;101384.09;6279909;22;20016;-84
2021/12/31 00:30:59;;;;;;;45.22;16.05;;;;;;;2.14;100.00;101379.63;6278511;22;20082;-85
2021/12/31 00:33:25;;;;;;;34.88;15.45;;;;;;;2.09;100.00;101377.28;6281223;22;20007;-87
2021/12/31 00:35:50;;;;;;;87.85;15.73;;;;;;;2.02;100.00;101375.97;6277540;22;20077;-85
2021/12/31 00:38:16;;;;;;;23.13;15.57;;;;;;;2.20;100.00;101379.28;6278067;22;20022;-87
2021/12/31 00:40:42;;;;;;;84.32;15.77;;;;;;;2.12;100.00;101377.13;6277641;22;20010;-86
2021/12/31 00:43:10;;;;;;;49.40;16.25;;;;;;;2.19;100.00;101378.44;6278362;22;20007;-85
2021/12/31 00:45:39;;;;;;;35.53;15.77;;;;;;;2.19;100.00;101381.06;6277760;22;20007;-84
2021/12/31 00:48:05;;;;;;;37.00;14.85;;;;;;;2.56;100.00;101387.63;6251149;22;20382;-85
2021/12/31 00:50:31;;;;;;;35.90;14.95;;;;;;;2.49;100.00;101387.13;6277785;22;20006;-87
2021/12/31 00:52:56;;;;;;;100.22;16.77;;;;;;;2.34;100.00;101387.19;6278276;22;20019;-86
2021/12/31 00:55:22;;;;;;;36.30;15.05;;;;;;;2.41;100.00;101402.44;6278808;22;20346;-86
2021/12/31 00:57:49;;;;;;;84.15;15.80;;;;;;;2.30;100.00;101399.59;6279337;22;20334;-86
2021/12/31 01:00:16;;;;;;;132.35;16.70;;;;;;;2.16;100.00;101398.69;6278848;22;20308;-86
2021/12/31 01:02:43;;;;;;;94.82;16.17;;;;;;;2.21;100.00;101404.50;6277345;22;20035;-86
2021/12/31 01:05:11;;;;;;;111.18;16.98;;;;;;;2.06;100.00;101403.59;6277661;22;20326;-85
2021/12/31 01:07:37;;;;;;;101.53;17.88;;;;;;;2.15;100.00;101408.31;6278381;22;20007;-85
2021/12/31 01:10:04;;;;;;;89.03;16.48;;;;;;;2.17;100.00;101400.38;6251343;22;20011;-85
2021/12/31 01:12:30;;;;;;;65.95;17.35;;;;;;;2.13;100.00;101394.47;6277320;22;20034;-85
2021/12/31 01:15:01;;;;;;;118.75;17.10;;;;;;;1.99;100.00;101397.88;6278068;22;20066;-85
2021/12/31 01:20:12;;;;;;;27.95;15.57;;;;;;;2.30;100.00;101401.38;6254688;22;20015;-87
2021/12/31 01:22:38;;;;;;;67.15;16.60;;;;;;;2.22;100.00;101396.56;6278164;22;20007;-86
2021/12/31 01:25:08;;;;;;;96.65;16.63;;;;;;;2.05;100.00;101396.72;6281846;22;20071;-86
2021/12/31 01:27:35;;;;;;;64.30;17.92;;;;;;;2.08;100.00;101402.59;6252131;22;20054;-84
2021/12/31 01:30:01;;;;;;;72.53;17.55;;;;;;;1.96;100.00;101394.59;6278324;22;20069;-85
2021/12/31 01:32:27;;;;;;;68.97;17.02;;;;;;;2.03;100.00;101399.38;6228421;22;20461;-86
2021/12/31 01:34:52;;;;;;;97.25;17.52;;;;;;;1.93;100.00;101397.38;6281388;22;20007;-85
2021/12/31 01:37:18;;;;;;;66.40;17.17;;;;;;;1.83;100.00;101394.44;6256323;22;20000;-86
2021/12/31 01:39:43;;;;;;;45.10;16.98;;;;;;;1.84;100.00;101390.91;6278389;22;20012;-85
2021/12/31 01:42:13;;;;;;;137.48;18.50;;;;;;;1.77;100.00;101401.75;6250645;22;20086;-86
2021/12/31 01:44:44;;;;;;;33.25;16.45;;;;;;;1.89;100.00;101394.09;6277691;22;20059;-85
2021/12/31 01:47:12;;;;;;;122.75;18.95;;;;;;;1.67;100.00;101393.59;6277597;22;20066;-87
2021/12/31 01:49:41;;;;;;;141.00;20.73;;;;;;;1.76;100.00;101400.06;6278081;22;20008;-86
2021/12/31 01:52:09;;;;;;;185.90;19.23;;;;;;;1.80;100.00;101391.16;6278193;22;20016;-85
2021/12/31 01:54:36;;;;;;;203.20;19.35;;;;;;;1.89;100.00;101395.88;6250241;22;20011;-85
2021/12/31 01:57:04;;;;;;;260.30;20.63;;;;;;;1.85;100.00;101389.97;6277147;22;20007;-86
2021/12/31 01:59:30;;;;;;;200.60;18.40;;;;;;;2.00;100.00;101394.34;6277509;22;20012;-87
2021/12/31 02:01:57;;;;;;;249.55;19.95;;;;;;;1.94;100.00;101396.44;6277822;22;20492;-84
2021/12/31 02:04:22;;;;;;;293.13;20.58;;;;;;;1.92;100.00;101400.94;6279706;22;20000;-85
2021/12/31 02:06:48;;;;;;;328.92;20.48;;;;;;;1.86;100.00;101396.03;6278765;22;20007;-85
2021/12/31 02:09:14;;;;;;;205.00;20.75;;;;;;;1.78;100.00;101403.47;6277138;22;20039;-88
2021/12/31 02:11:40;;;;;;;353.80;22.83;;;;;;;1.87;100.00;101402.94;6276765;22;20035;-85
2021/12/31 02:14:06;;;;;;;303.33;23.60;;;;;;;1.80;100.00;101406.81;6277554;22;19999;-86
2021/12/31 02:16:33;;;;;;;396.10;24.85;;;;;;;1.91;100.00;101404.47;6277751;22;20028;-84
2021/12/31 02:19:10;;;;;;;265.25;20.98;;;;;;;1.89;100.00;101401.94;6291857;22;20011;-84
2021/12/31 02:21:36;;;;;;;420.38;23.67;;;;;;;1.85;100.00;101404.81;6290334;22;20050;-84
2021/12/31 02:24:06;;;;;;;293.52;20.60;;;;;;;1.88;100.00;101404.63;6251933;22;20015;-86
2021/12/31 02:26:32;;;;;;;136.85;20.67;;;;;;;2.02;100.00;101399.50;6251424;22;20007;-87
2021/12/31 02:28:57;;;;;;;420.17;25.92;;;;;;;1.94;100.00;101399.06;6281165;22;20461;-85
2021/12/31 02:31:23;;;;;;;206.23;20.92;;;;;;;1.97;100.00;101399.75;6280442;22;20016;-85
2021/12/31 02:33:50;;;;;;;287.13;20.83;;;;;;;1.91;100.00;101394.84;6278831;22;20003;-85
2021/12/31 02:36:16;;;;;;;62.55;19.65;;;;;;;1.88;100.00;101394.19;6251116;22;20014;-85
2021/12/31 02:38:43;;;;;;;311.08;23.50;;;;;;;1.85;100.00;101400.44;6276951;22;20086;-87
2021/12/31 02:41:09;;;;;;;234.35;20.65;;;;;;;1.92;100.00;101400.94;6250178;22;20008;-87
2021/12/31 02:43:35;;;;;;;248.45;21.40;;;;;;;1.87;100.00;101392.50;6250423;22;20117;-86
2021/12/31 02:46:01;;;;;;;410.40;25.63;;;;;;;1.91;100.00;101383.56;6278370;22;20011;-83
2021/12/31 02:48:27;;;;;;;278.55;20.95;;;;;;;1.81;100.00;101390.22;6278033;22;20616;-88
2021/12/31 02:50:55;;;;;;;324.20;23.27;;;;;;;1.82;100.00;101394.53;6277910;22;20083;-88
2021/12/31 02:53:30;;;;;;;287.50;21.48;;;;;;;1.85;100.00;101391.75;6277315;22;20004;-87
2021/12/31 02:56:04;;;;;;;332.73;22.48;;;;;;;1.87;100.00;101403.78;6277343;22;20010;-89
2021/12/31 02:58:31;;;;;;;412.30;25.27;;;;;;;1.85;100.00;101391.75;6277824;22;20114;-87
2021/12/31 03:00:57;;;;;;;77.28;18.35;;;;;;;2.20;100.00;101390.59;6250023;22;20461;-85
2021/12/31 03:03:24;;;;;;;37.65;16.88;;;;;;;2.04;100.00;101384.56;6249388;22;20083;-84
2021/12/31 03:05:52;;;;;;;236.68;20.95;;;;;;;1.83;100.00;101385.75;6277321;22;20007;-87
2021/12/31 03:08:20;;;;;;;117.32;18.45;;;;;;;2.08;100.00;101391.31;6277679;22;20024;-85
2021/12/31 03:10:46;;;;;;;148.80;18.88;;;;;;;1.95;100.00;101379.84;6276864;22;20466;-87
2021/12/31 03:13:14;;;;;;;260.80;19.58;;;;;;;1.73;100.00;101376.72;6277805;22;20011;-87
2021/12/31 03:15:44;;;;;;;84.80;18.17;;;;;;;1.74;100.00;101370.59;6277512;22;20044;-87
2021/12/31 03:18:11;;;;;;;196.07;19.30;;;;;;;2.02;100.00;101375.97;6277205;22;20008;-86
2021/12/31 03:20:43;;;;;;;222.43;19.70;;;;;;;1.91;100.00;101371.34;6277247;22;20007;-87
2021/12/31 03:23:10;;;;;;;254.63;19.67;;;;;;;2.14;100.00;101375.25;6278154;22;20004;-87
2021/12/31 03:25:36;;;;;;;288.33;20.83;;;;;;;1.73;100.00;101363.66;6277041;22;20042;-87
2021/12/31 03:28:02;;;;;;;103.70;16.92;;;;;;;1.95;100.00;101364.16;6275991;22;20007;-88
2021/12/31 03:30:27;;;;;;;283.90;19.83;;;;;;;1.88;100.00;101368.06;6278155;22;20534;-86
2021/12/31 03:32:53;;;;;;;170.32;17.45;;;;;;;1.87;100.00;101376.81;6277665;22;20015;-85
2021/12/31 03:35:19;;;;;;;179.07;17.00;;;;;;;1.74;100.00;101381.03;6277989;22;20032;-89
2021/12/31 03:37:44;;;;;;;168.55;17.25;;;;;;;1.74;100.00;101381.03;6278056;22;20003;-86
2021/12/31 03:40:11;;;;;;;320.02;20.63;;;;;;;1.49;100.00;101382.38;6251776;22;20141;-86
2021/12/31 03:42:37;;;;;;;259.65;20.55;;;;;;;1.49;100.00;101387.59;6282115;22;20031;-86
2021/12/31 03:45:04;;;;;;;84.03;16.67;;;;;;;1.58;100.00;101385.41;6283933;22;20042;-86
2021/12/31 03:47:29;;;;;;;113.18;16.65;;;;;;;1.67;100.00;101383.16;6282205;22;20389;-89
2021/12/31 03:49:55;;;;;;;195.90;18.23;;;;;;;1.61;100.00;101380.03;6278121;22;20090;-89
2021/12/31 03:52:20;;;;;;;52.13;15.93;;;;;;;1.79;100.00;101381.63;6250853;22;20343;-88
2021/12/31 03:54:46;;;;;;;118.10;17.65;;;;;;;1.71;100.00;101381.22;6277327;22;20012;-89
2021/12/31 03:57:11;;;;;;;183.77;18.35;;;;;;;1.55;100.00;101371.63;6277782;22;20056;-86
2021/12/31 03:59:37;;;;;;;51.72;15.95;;;;;;;1.59;100.00;101374.06;6277781;22;20027;-86
2021/12/31 04:02:03;;;;;;;74.68;17.00;;;;;;;1.60;100.00;101368.72;6279023;22;20011;-88
2021/12/31 04:04:28;;;;;;;135.68;16.90;;;;;;;1.67;100.00;101369.22;6280238;22;20012;-87
2021/12/31 04:06:54;;;;;;;123.47;16.85;;;;;;;1.76;100.00;101368.72;6252711;22;20039;-87
2021/12/31 04:09:20;;;;;;;172.95;17.98;;;;;;;1.72;100.00;101372.44;6253022;22;20395;-86
2021/12/31 04:11:45;;;;;;;218.48;16.80;;;;;;;1.84;100.00;101372.59;6279679;22;20003;-86
2021/12/31 04:14:11;;;;;;;194.63;17.20;;;;;;;1.90;100.00;101368.78;6252851;22;20011;-85
2021/12/31 04:16:39;;;;;;;47.47;14.18;;;;;;;1.94;100.00;101379.00;6279977;22;20003;-87
2021/12/31 04:19:05;;;;;;;59.38;14.45;;;;;;;2.14;100.00;101377.88;6280156;22;20011;-86
2021/12/31 04:21:31;;;;;;;125.53;15.00;;;;;;;2.17;100.00;101385.53;6279585;22;20061;-85
2021/12/31 04:24:13;;;;;;;121.18;13.90;;;;;;;1.86;100.00;101380.34;6280088;22;20015;-87
2021/12/31 04:26:39;;;;;;;134.45;15.55;;;;;;;1.95;100.00;101369.41;6280133;22;20065;-88
2021/12/31 04:29:05;;;;;;;78.60;12.63;;;;;;;2.12;100.00;101376.28;6279161;22;20308;-87
2021/12/31 04:31:31;;;;;;;97.90;13.40;;;;;;;1.84;100.00;101367.38;6280081;22;20019;-85
2021/12/31 04:33:58;;;;;;;191.15;14.30;;;;;;;1.59;100.00;101366.22;6279642;22;20016;-86
2021/12/31 04:36:24;;;;;;;122.80;14.68;;;;;;;1.66;100.00;101380.63;6279965;22;20019;-85
2021/12/31 04:38:49;;;;;;;69.30;14.20;;;;;;;1.91;100.00;101373.94;6281444;22;20004;-88
2021/12/31 04:41:15;;;;;;;116.50;13.77;;;;;;;1.99;100.00;101376.09;6282119;22;20042;-86
2021/12/31 04:43:40;;;;;;;108.53;14.25;;;;;;;2.15;100.00;101371.72;6266761;22;20045;-85
2021/12/31 04:46:06;;;;;;;90.78;12.35;;;;;;;2.23;100.00;101373.88;6294905;22;20011;-87
2021/12/31 04:48:31;;;;;;;63.65;12.90;;;;;;;2.31;100.00;101375.13;6255489;22;20012;-85
2021/12/31 04:50:57;;;;;;;74.68;11.95;;;;;;;2.26;100.00;101377.16;6262546;22;20476;-84
2021/12/31 04:53:22;;;;;;;151.82;15.20;;;;;;;1.84;100.00;101371.75;6280349;22;20287;-86
2021/12/31 04:55:48;;;;;;;261.38;16.52;;;;;;;1.65;100.00;101365.88;6280541;22;20024;-86
2021/12/31 04:58:13;;;;;;;196.85;15.73;;;;;;;1.43;100.00;101361.81;6284495;22;20012;-85
2021/12/31 05:00:42;;;;;;;269.42;19.20;;;;;;;1.36;100.00;101359.63;6281496;22;19999;-87
2021/12/31 05:03:09;;;;;;;164.27;16.85;;;;;;;1.32;100.00;101350.28;6280913;22;20023;-84
2021/12/31 05:05:35;;;;;;;265.95;18.52;;;;;;;1.25;100.00;101356.75;6281033;22;20073;-86
2021/12/31 05:08:01;;;;;;;304.70;21.80;;;;;;;1.40;100.00;101359.38;6279985;22;20011;-86
2021/12/31 05:10:30;;;;;;;244.50;18.60;;;;;;;1.30;100.00;101355.56;6279284;22;20078;-85
2021/12/31 05:12:56;;;;;;;158.18;17.27;;;;;;;1.37;100.00;101359.53;6253271;22;20081;-87
2021/12/31 05:15:27;;;;;;;70.15;14.45;;;;;;;1.48;100.00;101365.03;6279756;22;20019;-85
2021/12/31 05:17:53;;;;;;;116.72;16.67;;;;;;;1.42;100.00;101359.31;6278205;22;20078;-85
2021/12/31 05:20:19;;;;;;;88.88;15.35;;;;;;;1.58;100.00;101364.53;6278086;22;20443;-84
2021/12/31 05:22:44;;;;;;;234.88;19.13;;;;;;;1.33;100.00;101365.84;6279224;22;20053;-84
2021/12/31 05:25:10;;;;;;;131.77;19.02;;;;;;;1.28;100.00;101364.41;6279703;22;20419;-83
2021/12/31 05:27:36;;;;;;;83.70;17.13;;;;;;;1.33;100.00;101365.84;6280516;22;20042;-85
2021/12/31 05:30:02;;;;;;;112.13;17.17;;;;;;;1.37;100.00;101362.16;6280994;22;20289;-86
2021/12/31 05:32:28;;;;;;;112.50;16.92;;;;;;;1.19;100.00;101368.38;6284782;22;20019;-83
2021/12/31 05:34:54;;;;;;;243.20;20.55;;;;;;;1.27;100.00;101366.19;6226022;22;20012;-86
2021/12/31 05:37:20;;;;;;;175.63;17.33;;;;;;;1.24;100.00;101371.56;6252880;22;19999;-85
2021/12/31 05:39:45;;;;;;;79.40;14.82;;;;;;;1.38;100.00;101368.22;6281823;22;20018;-84
2021/12/31 05:42:12;;;;;;;112.25;16.35;;;;;;;1.41;100.00;101376.75;6281684;22;20011;-85
2021/12/31 05:44:38;;;;;;;67.20;14.85;;;;;;;1.45;100.00;101370.44;6281640;22;20003;-86
2021/12/31 05:47:03;;;;;;;180.82;16.25;;;;;;;1.48;100.00;101382.47;6280449;22;20011;-84
2021/12/31 05:49:29;;;;;;;170.23;16.27;;;;;;;1.25;100.00;101375.88;6280906;22;20423;-87
2021/12/31 05:51:55;;;;;;;154.35;17.25;;;;;;;1.12;100.00;101387.91;6279990;22;20398;-88
2021/12/31 05:54:23;;;;;;;152.27;17.17;;;;;;;1.19;100.00;101388.41;6279121;22;20003;-87
2021/12/31 05:56:49;;;;;;;87.78;17.15;;;;;;;1.39;100.00;101381.19;6279226;22;20030;-88
2021/12/31 05:59:14;;;;;;;54.33;16.30;;;;;;;1.59;100.00;101381.88;6254509;22;20016;-90
2021/12/31 06:01:40;;;;;;;257.65;18.77;;;;;;;1.58;100.00;101388.03;6279537;22;20003;-89
2021/12/31 06:04:06;;;;;;;180.48;16.98;;;;;;;1.33;100.00;101389.34;6252329;22;20411;-85
2021/12/31 06:06:31;;;;;;;155.55;14.38;;;;;;;1.12;100.00;101392.28;6281719;22;20027;-87
2021/12/31 06:08:57;;;;;;;119.28;15.25;;;;;;;0.99;100.00;101390.28;6283329;22;20035;-89
2021/12/31 06:11:23;;;;;;;90.72;16.08;;;;;;;1.02;100.00;101397.97;6227622;22;20045;-87
2021/12/31 06:13:55;;;;;;;79.03;13.88;;;;;;;0.99;100.00;101395.50;6257281;22;20007;-85
2021/12/31 06:16:20;;;;;;;62.65;14.77;;;;;;;0.92;100.00;101402.00;6298503;22;19991;-85
2021/12/31 06:18:46;;;;;;;68.60;15.13;;;;;;;0.96;100.00;101397.47;6296961;22;20018;-84
2021/12/31 06:21:12;;;;;;;136.45;17.10;;;;;;;1.09;100.00;101408.09;6269046;22;20050;-85
2021/12/31 06:23:37;;;;;;;84.07;15.30;;;;;;;1.05;100.00;101410.03;6291760;22;20011;-85
2021/12/31 06:26:04;;;;;;;77.45;15.93;;;;;;;1.05;100.00;101407.41;6281891;22;20082;-86
2021/12/31 06:28:29;;;;;;;76.45;14.73;;;;;;;1.18;100.00;101415.44;6280501;22;20015;-87
2021/12/31 06:30:55;;;;;;;109.68;14.75;;;;;;;1.03;100.00;101417.91;6280794;22;20453;-87
2021/12/31 06:33:20;;;;;;;150.85;16.70;;;;;;;0.91;100.00;101420.31;6280167;22;20087;-85
2021/12/31 06:35:46;;;;;;;138.68;16.27;;;;;;;0.91;100.00;101415.09;6280073;22;20008;-84
2021/12/31 06:38:12;;;;;;;29.58;14.25;;;;;;;1.06;100.00;101416.94;6279800;22;20006;-85
2021/12/31 06:40:38;;;;;;;98.80;16.42;;;;;;;0.94;100.00;101422.78;6281021;22;20004;-85
2021/12/31 06:43:04;;;;;;;133.65;16.58;;;;;;;0.98;100.00;101426.91;6279634;22;20356;-89
2021/12/31 06:45:30;;;;;;;84.85;16.45;;;;;;;0.91;100.00;101420.31;6253171;22;20019;-87
2021/12/31 06:47:56;;;;;;;35.45;14.55;;;;;;;1.12;100.00;101424.44;6227091;22;20343;-87
2021/12/31 06:50:22;;;;;;;90.60;16.02;;;;;;;1.11;100.00;101417.53;6281663;22;20095;-87
2021/12/31 06:52:47;;;;;;;43.72;14.85;;;;;;;1.13;100.00;101409.63;6282553;22;20442;-88
2021/12/31 06:55:13;;;;;;;119.43;16.35;;;;;;;1.03;100.00;101414.47;6285225;22;20042;-82
2021/12/31 06:57:39;;;;;;;92.13;15.43;;;;;;;1.01;100.00;101417.16;6279127;22;20050;-83
2021/12/31 07:00:06;;;;;;;111.70;15.32;;;;;;;1.03;100.00;101415.31;6284502;22;20038;-87
2021/12/31 07:02:32;;;;;;;92.18;15.73;;;;;;;1.16;100.00;101423.34;6281405;22;20007;-87
2021/12/31 07:04:58;;;;;;;45.55;14.52;;;;;;;1.11;100.00;101422.75;6282590;22;20067;-86
2021/12/31 07:07:24;;;;;;;91.88;15.32;;;;;;;0.84;100.00;101430.22;6252739;22;20086;-88
2021/12/31 07:09:49;;;;;;;104.53;16.08;;;;;;;0.78;100.00;101434.91;6279946;22;20042;-91
2021/12/31 07:12:15;;;;;;;43.22;14.32;;;;;;;0.84;100.00;101439.81;6277431;22;20430;-85
2021/12/31 07:14:41;;;;;;;26.20;13.98;;;;;;;1.02;100.00;101447.56;6275737;22;20006;-85
2021/12/31 07:17:10;;;;;;;33.17;13.63;;;;;;;1.02;100.00;101446.72;6275821;22;20027;-85
2021/12/31 07:19:35;;;;;;;35.47;13.15;;;;;;;0.96;100.00;101447.03;6277452;22;20015;-85
2021/12/31 07:22:01;;;;;;;47.72;12.80;;;;;;;0.89;100.00;101445.66;6287356;22;20095;-84
2021/12/31 07:24:27;;;;;;;35.80;14.32;;;;;;;0.89;100.00;101448.28;6276573;22;20330;-85
2021/12/31 07:26:52;;;;;;;59.35;15.70;;;;;;;0.86;100.00;101451.84;6275739;22;20008;-84
2021/12/31 07:29:18;;;;;;;56.78;16.38;;;;;;;0.85;100.00;101450.19;6276238;22;20060;-88
2021/12/31 07:31:44;;;;;;;30.52;15.40;;;;;;;0.94;100.00;101451.47;6275667;22;20083;-83
2021/12/31 07:34:09;;;;;;;21.80;14.15;;;;;;;1.23;100.00;101447.34;6253436;22;20012;-84
2021/12/31 07:36:35;;;;;;;28.60;13.77;;;;;;;1.25;100.00;101462.03;6277718;22;20031;-82
2021/12/31 07:39:06;;;;;;;19.05;13.15;;;;;;;1.31;100.00;101469.53;6277426;22;20047;-82
2021/12/31 07:41:31;;;;;;;18.17;12.20;;;;;;;1.39;100.00;101475.19;6282265;22;20012;-85
2021/12/31 07:43:57;;;;;;;20.00;12.68;;;;;;;1.37;100.00;101474.44;6282578;22;20016;-81
2021/12/31 07:46:24;;;;;;;20.73;12.35;;;;;;;1.35;100.00;101478.91;6277681;22;20011;-81
2021/12/31 07:48:49;;;;;;;16.92;11.63;;;;;;;1.40;100.00;101482.13;6277778;22;20016;-81
2021/12/31 07:51:15;;;;;;;19.88;11.30;;;;;;;1.48;100.00;101484.34;6277507;22;20313;-80
2021/12/31 07:53:41;;;;;;;19.55;11.60;;;;;;;1.32;100.00;101479.09;6277413;22;20000;-83
2021/12/31 07:56:06;;;;;;;24.65;12.18;;;;;;;1.32;100.00;101494.75;6277500;22;20011;-80
2021/12/31 07:58:32;;;;;;;21.73;13.20;;;;;;;1.36;100.00;101492.81;6280520;22;20039;-82
2021/12/31 08:00:57;;;;;;;21.90;12.82;;;;;;;1.42;100.00;101495.97;6205474;22;20023;-85
2021/12/31 08:03:23;;;;;;;32.17;12.68;;;;;;;1.40;100.00;101503.00;6277344;22;20004;-88
2021/12/31 08:05:48;;;;;;;22.20;12.65;;;;;;;1.44;100.00;101506.31;6276715;22;20014;-84
2021/12/31 08:08:14;;;;;;;35.05;13.45;;;;;;;1.40;100.00;101494.31;6278751;22;20004;-87
2021/12/31 08:10:40;;;;;;;41.97;12.43;;;;;;;1.30;100.00;101501.81;6250576;22;20065;-88
2021/12/31 08:13:06;;;;;;;39.35;13.88;;;;;;;1.21;100.00;101506.66;6276987;22;20106;-87
2021/12/31 08:15:32;;;;;;;20.38;13.40;;;;;;;1.32;100.00;101505.19;6251817;22;20012;-87
2021/12/31 08:17:58;;;;;;;32.85;13.63;;;;;;;1.43;100.00;101492.41;6277441;22;20031;-87
2021/12/31 08:20:24;;;;;;;37.03;13.98;;;;;;;1.35;100.00;101501.56;6279455;22;20012;-85
2021/12/31 08:22:51;;;;;;;42.38;14.85;;;;;;;1.37;100.00;101507.56;6257830;22;20320;-87
2021/12/31 08:25:17;;;;;;;37.03;14.93;;;;;;;1.54;100.00;101505.75;6281516;22;20031;-89
2021/12/31 08:27:43;;;;;;;34.33;14.15;;;;;;;1.55;100.00;101504.84;6226026;22;20016;-88
2021/12/31 08:30:09;;;;;;;19.73;13.20;;;;;;;1.54;100.00;101499.69;6277063;22;20018;-86
2021/12/31 08:32:35;;;;;;;44.45;13.88;;;;;;;1.55;100.00;101501.38;6279365;22;19999;-87
2021/12/31 08:35:01;;;;;;;31.92;13.95;;;;;;;1.57;100.00;101504.75;6251506;22;20004;-88
2021/12/31 08:37:27;;;;;;;32.35;14.77;;;;;;;1.64;100.00;101502.66;6275441;22;20126;-86
2021/12/31 08:39:52;;;;;;;36.60;15.20;;;;;;;1.58;100.00;101514.28;6275757;22;20030;-87
2021/12/31 08:42:18;;;;;;;23.55;15.05;;;;;;;1.59;100.00;101526.44;6277106;22;20068;-85
2021/12/31 08:44:44;;;;;;;21.15;13.70;;;;;;;1.50;100.00;101519.91;6276314;22;20447;-85
2021/12/31 08:47:10;;;;;;;22.00;14.48;;;;;;;1.57;100.00;101515.19;6282842;22;20026;-88
2021/12/31 08:49:38;;;;;;;22.20;14.90;;;;;;;1.65;100.00;101506.97;6278254;22;20008;-85
2021/12/31 08:52:04;;;;;;;27.30;15.15;;;;;;;1.85;100.00;101506.75;6278881;22;20012;-85
2021/12/31 08:54:29;;;;;;;20.83;14.77;;;;;;;1.86;100.00;101513.63;6277264;22;20035;-86
2021/12/31 08:56:55;;;;;;;20.77;14.35;;;;;;;2.10;100.00;101507.09;6277748;22;20011;-88
2021/12/31 08:59:21;;;;;;;19.92;13.68;;;;;;;2.42;100.00;101515.78;6277625;22;20393;-86
2021/12/31 09:01:47;;;;;;;20.92;14.27;;;;;;;2.92;100.00;101505.03;6278417;22;20016;-85
2021/12/31 09:04:12;;;;;;;19.23;12.80;;;;;;;2.85;100.00;101506.34;6251249;22;20109;-88
2021/12/31 09:06:39;;;;;;;20.25;13.00;;;;;;;2.86;100.00;101498.38;6277330;22;20415;-88
2021/12/31 09:09:06;;;;;;;17.92;13.38;;;;;;;2.58;100.00;101514.84;6277670;22;20046;-88
2021/12/31 09:11:31;;;;;;;19.77;13.43;;;;;;;2.63;100.00;101501.47;6278343;22;20503;-84
2021/12/31 09:13:58;;;;;;;17.08;11.88;;;;;;;2.64;100.00;101513.63;6278394;22;20035;-85
2021/12/31 09:16:26;;;;;;;17.67;13.02;;;;;;;2.56;100.00;101507.97;6283324;22;20439;-84
2021/12/31 09:18:54;;;;;;;17.85;12.95;;;;;;;2.45;100.00;101503.34;6279478;22;20020;-85
2021/12/31 09:21:22;;;;;;;22.80;14.57;;;;;;;2.41;100.00;101501.84;6252320;22;20335;-83
2021/12/31 09:23:48;;;;;;;20.85;14.32;;;;;;;2.35;100.00;101499.59;6280634;22;20175;-86
2021/12/31 09:26:16;;;;;;;22.52;14.35;;;;;;;2.50;100.00;101506.56;6280304;22;20111;-88
2021/12/31 09:28:42;;;;;;;22.95;16.40;;;;;;;2.69;100.00;101511.59;6279757;22;20000;-85
2021/12/31 09:31:12;;;;;;;21.35;14.82;;;;;;;3.10;100.00;101510.03;6252627;22;20335;-83
2021/12/31 09:33:38;;;;;;;20.23;14.52;;;;;;;2.88;100.00;101500.91;6280358;22;20035;-86
2021/12/31 09:36:06;;;;;;;18.85;14.45;;;;;;;2.89;100.00;101508.66;6249875;22;20395;-85
2021/12/31 09:38:32;;;;;;;20.02;14.63;;;;;;;3.00;100.00;101510.66;6275659;22;20000;-81
2021/12/31 09:40:57;;;;;;;18.00;13.38;;;;;;;3.28;100.00;101521.19;6250918;22;20019;-81
2021/12/31 09:43:24;;;;;;;21.02;14.13;;;;;;;3.24;100.00;101511.00;6277639;22;20035;-83
2021/12/31 09:45:52;;;;;;;26.15;16.05;;;;;;;3.40;100.00;101517.84;6253966;22;20408;-83
2021/12/31 09:48:20;;;;;;;24.80;16.27;;;;;;;3.27;100.00;101516.06;6279501;22;20098;-81
2021/12/31 09:50:52;;;;;;;31.23;18.40;;;;;;;3.56;100.00;101516.00;6277499;22;20103;-80
2021/12/31 09:53:24;;;;;;;31.85;19.95;;;;;;;3.65;100.00;101518.03;6277423;22;20027;-83
2021/12/31 09:55:52;;;;;;;37.70;21.15;;;;;;;3.57;100.00;101517.69;6250176;22;20465;-80
2021/12/31 09:58:19;;;;;;;33.45;20.20;;;;;;;3.39;100.00;101513.53;6276749;22;20023;-83
2021/12/31 10:00:47;;;;;;;41.25;21.50;;;;;;;3.64;100.00;101512.91;6277229;22;20435;-83
2021/12/31 10:03:22;;;;;;;34.60;21.67;;;;;;;3.56;100.00;101515.13;6278336;22;20014;-84
2021/12/31 10:05:50;;;;;;;35.65;20.90;;;;;;;3.65;100.00;101507.56;6278781;22;20012;-85
2021/12/31 10:08:29;;;;;;;42.40;24.65;;;;;;;3.77;100.00;101510.38;6277880;22;20008;-88
2021/12/31 10:11:01;;;;;;;32.80;21.52;;;;;;;3.79;100.00;101505.88;6282697;22;20008;-84
2021/12/31 10:13:26;;;;;;;31.48;20.35;;;;;;;3.91;100.00;101505.13;6286036;22;20012;-81
2021/12/31 10:15:54;;;;;;;35.05;22.23;;;;;;;3.87;100.00;101504.47;6283982;22;20018;-83
2021/12/31 10:18:28;;;;;;;39.42;23.35;;;;;;;3.82;100.00;101506.53;6277850;22;20057;-83
2021/12/31 10:20:54;;;;;;;47.50;26.50;;;;;;;4.04;100.00;101511.28;6277176;22;20107;-83
2021/12/31 10:23:19;;;;;;;47.72;27.63;;;;;;;4.14;100.00;101499.28;6276538;22;20023;-82
2021/12/31 10:25:47;;;;;;;45.00;26.08;;;;;;;4.36;100.00;101504.00;6276558;22;20145;-84
2021/12/31 10:28:15;;;;;;;47.95;28.23;;;;;;;4.39;100.00;101504.63;6276620;22;20484;-82
2021/12/31 10:30:41;;;;;;;48.78;26.08;;;;;;;4.59;100.00;101491.06;6276890;22;20073;-81
2021/12/31 10:33:07;;;;;;;46.55;25.48;;;;;;;4.81;100.00;101495.72;6276502;22;20006;-86
2021/12/31 10:35:39;;;;;;;46.78;27.20;;;;;;;4.69;100.00;101489.53;6276676;22;20012;-81
2021/12/31 10:38:06;;;;;;;41.27;23.37;;;;;;;5.14;100.00;101484.75;6276725;22;20008;-82
2021/12/31 10:40:49;;;;;;;45.42;26.20;;;;;;;4.93;100.00;101473.09;6276468;22;20087;-83
2021/12/31 10:43:25;;;;;;;41.67;24.80;;;;;;;5.23;100.00;101476.28;6276287;22;20386;-83
2021/12/31 10:46:11;;;;;;;42.65;24.80;;;;;;;5.29;100.00;101478.47;6249071;22;20014;-83
2021/12/31 10:48:50;;;;;;;45.80;26.13;;;;;;;5.47;100.00;101469.31;6276464;22;20015;-82
2021/12/31 10:51:18;;;;;;;37.75;23.30;;;;;;;5.10;100.00;101467.53;6276700;22;20012;-82
2021/12/31 10:53:53;;;;;;;36.72;23.42;;;;;;;4.87;100.00;101463.81;6276597;22;20000;-82
2021/12/31 10:56:18;;;;;;;33.45;21.45;;;;;;;4.92;100.00;101466.13;6276595;22;20012;-84
2021/12/31 10:58:46;;;;;;;28.42;18.33;;;;;;;4.86;100.00;101474.44;6276325;22;20515;-82
2021/12/31 11:01:14;;;;;;;31.65;18.70;;;;;;;4.69;100.00;101473.78;6276138;22;20443;-82
2021/12/31 11:03:41;;;;;;;29.27;20.08;;;;;;;4.72;100.00;101469.25;6276444;22;20335;-83
2021/12/31 11:06:10;;;;;;;28.52;19.67;;;;;;;4.99;100.00;101468.25;6276290;22;20057;-83
2021/12/31 11:08:36;;;;;;;28.88;18.95;;;;;;;5.01;100.00;101457.63;6276215;22;20026;-82